Startpagina
METAR-TAF:

METAR-TAF

Vliegvelden :

Luchthaven Helsinki-Vantaa

Helsinki, Finland

breedte: 60-19N, lengte: 024-58E, hoogte: 51 m

Actueel weer

Dit bericht is 23 minuten geleden gemaakt, om 13:20 UTC
Wind 9 kt uit het noordnoordoosten
Temperatuur 14°C
Vochtigheid 67%
Druk 1017 hPa
Zicht 10 km of meer
Weinig wolken op 3600 ft
Gebroken wolken op 7500 ft

METAR: EFHK 261320Z 03009KT 9999 FEW036 BKN075 14/08 Q1017 NOSIG

Tijdstip: 16:43 (13:43 UTC)

Verwachting

Dit bericht is 2 uur en het 15 minuten geleden gemaakt, om 11:28 UTC
Verwachting geldig van 26 om 12 UTC tot 27 om 12 UTC
Wind 7 kt uit het oostnoordoosten
Zicht 10 km of meer
Weinig wolken op 4000 ft
Gebroken wolken op 7500 ft
Kans 40% :
Tijdelijke
van 26 om 12 UTC tot 27 om 03 UTC
Wind 10 kt uit het zuidoosten
Weinig wolken op 7000 ft, Cumulonimbus.
Gebroken wolken op 8000 ft

TAF: EFHK 261128Z 2612/2712 06007KT 9999 FEW040 BKN075 PROB40 TEMPO 2612/2703 14010KT FEW070CB BKN080

Waarnemingen en weersverwachtingen van meer dan 4000 vliegvelden (METAR en TAF).

De beschikbare stations zijn de gele en rode punten op de kaart.

Ga met uw muis naar het station om de naam te zien.

Klik dan om waarnemingen en weersverwachtingen te zien.

kaart wijzigen: klik op de groene knoppen met een zwart kruis om in te zoomen, op de groene knop met een streepje om uit te zoomen of op de groene pijlen voor aangrenzende kaarten.


METAR-TAF: